Flight Track Log - Related Links

Times and Time Zones

All times are in EDT time to prevent confusion due to time zone crossing. See the DAL268 flight status page for this flight to view local times or setup timezone preferences in your user account.

Time Position Orientation Groundspeed Altitude Reporting Facility
EDT Latitude Longitude Course Direction KTS MPH feet Rate Location/Type
Wed 02:40:36 PM 37.6130 -122.3770 90° East 115 132  Level FlightAware ADS-B
Wed 02:40:50 PM 37.6233 -122.3700 28° Northeast 160 184 200 1,500 Climbing FlightAware ADS-B
Wed 02:41:04 PM 37.6320 -122.3640 29° Northeast 162 186 700 2,100 Climbing FlightAware ADS-B
Wed 02:41:10 PM 37.6367 -122.3610 27° Northeast 170 196 900 2,182 Climbing FlightAware ADS-B
Wed 02:41:15 PM 37.6398 -122.3580 37° Northeast 178 205 1,100 2,000 Climbing FlightAware ADS-B
Wed 02:41:19 PM 37.6418 -122.3550 50° Northeast 180 207 1,200 1,800 Climbing FlightAware ADS-B
Wed 02:41:35 PM 37.6509 -122.3420 49° Northeast 195 224 1,700 1,778 Climbing FlightAware ADS-B
Wed 02:41:46 PM 37.6578 -122.3320 49° Northeast 209 241 2,000 1,500 Climbing FlightAware ADS-B
Wed 02:42:03 PM 37.6704 -122.3160 45° Northeast 236 272 2,400 1,800 Climbing FlightAware ADS-B
Wed 02:42:16 PM 37.6804 -122.3030 46° Northeast 247 284 2,900 2,143 Climbing FlightAware ADS-B
Wed 02:42:31 PM 37.6929 -122.2870 45° Northeast 261 300 3,400 2,063 Climbing FlightAware ADS-B
Wed 02:42:48 PM 37.7076 -122.2670 47° Northeast 274 315 4,000 2,727 Climbing FlightAware ADS-B
Wed 02:43:04 PM 37.7217 -122.2490 45° Northeast 275 316 4,900 3,150 Climbing FlightAware ADS-B
Wed 02:43:28 PM 37.7439 -122.2210 45° Northeast 276 318 6,100 2,927 Climbing FlightAware ADS-B
Wed 02:43:45 PM 37.7589 -122.2020 45° Northeast 279 321 6,900 2,727 Climbing FlightAware ADS-B
Wed 02:44:01 PM 37.7734 -122.1830 46° Northeast 284 327 7,600 2,647 Climbing FlightAware ADS-B
Wed 02:44:19 PM 37.7908 -122.1610 45° Northeast 288 331 8,400 2,727 Climbing FlightAware ADS-B
Wed 02:44:34 PM 37.8051 -122.1430 45° Northeast 291 335 9,100 2,516 Climbing FlightAware ADS-B
Wed 02:44:50 PM 37.8201 -122.1230 46° Northeast 297 342 9,700 2,043 Climbing FlightAware ADS-B
Wed 02:45:21 PM 37.8502 -122.0840 46° Northeast 303 349 10,700 2,262 Climbing FlightAware ADS-B
Wed 02:45:51 PM 37.8804 -122.0460 45° Northeast 307 353 12,000 2,571 Climbing FlightAware ADS-B
Wed 02:46:10 PM 37.8992 -122.0230 44° Northeast 311 358 12,800 2,500 Climbing FlightAware ADS-B
Wed 02:46:15 PM 37.9047 -122.0140 52° Northeast 312 359 13,000 2,143 Climbing FlightAware ADS-B
Wed 02:46:24 PM 37.9109 -122.0020 57° Northeast 314 361 13,300 2,000 Climbing FlightAware ADS-B
Wed 02:46:33 PM 37.9167 -121.9860 65° Northeast 315 362 13,600 2,143 Climbing FlightAware ADS-B
Wed 02:47:06 PM 37.9277 -121.9270 77° East 322 371 14,800 1,483 Climbing FlightAware ADS-B
Wed 02:48:02 PM 37.9458 -121.8140 78° East 348 400 15,800 1,121 Climbing FlightAware ADS-B
Wed 02:48:37 PM 37.9582 -121.7370 78° East 395 455 16,500 1,273 Climbing FlightAware ADS-B
Wed 02:49:08 PM 37.9698 -121.6650 78° East 409 471 17,200 2,762 Climbing FlightAware ADS-B
Wed 02:49:40 PM 37.9814 -121.5940 78° East 382 440 19,400 3,188 Climbing FlightAware ADS-B
Wed 02:50:12 PM 37.9925 -121.5240 79° East 382 440 20,600 2,095 Climbing FlightAware ADS-B
Wed 02:50:43 PM 38.0033 -121.4570 78° East 386 444 21,600 1,967 Climbing FlightAware ADS-B
Wed 02:51:13 PM 38.0140 -121.3890 79° East 389 448 22,600 1,800 Climbing FlightAware ADS-B
Wed 02:51:43 PM 38.0249 -121.3210 78° East 396 456 23,400 1,600 Climbing FlightAware ADS-B
Wed 02:52:13 PM 38.0357 -121.2520 79° East 401 461 24,200 1,629 Climbing FlightAware ADS-B
Wed 02:52:53 PM 38.0500 -121.1610 79° East 406 467 25,300 1,590 Climbing FlightAware ADS-B
Wed 02:53:36 PM 38.0660 -121.0600 79° East 410 472 26,400 1,595 Climbing FlightAware ADS-B
Wed 02:54:12 PM 38.0810 -120.9770 77° East 413 475 27,400 1,500 Climbing FlightAware ADS-B
Wed 02:54:44 PM 38.1000 -120.9000 73° East 419 482 28,100 1,273 Climbing FlightAware ADS-B
Wed 02:55:18 PM 38.1190 -120.8200 73° East 424 488 28,800 892 Climbing FlightAware ADS-B
Wed 02:55:58 PM 38.1420 -120.7250 73° East 441 507 29,200 667 Climbing FlightAware ADS-B
Wed 02:56:30 PM 38.1620 -120.6420 73° East 455 524 29,600 618 Climbing FlightAware ADS-B
Wed 02:57:06 PM 38.1840 -120.5480 73° East 470 541 29,900 667 Climbing FlightAware ADS-B
Wed 02:57:42 PM 38.2070 -120.4530 73° East 479 551 30,400 1,000 Climbing FlightAware ADS-B
Wed 02:58:12 PM 38.2260 -120.3730 73° East 478 550 31,000 1,324 Climbing FlightAware ADS-B
Wed 02:58:50 PM 38.2500 -120.2680 74° East 478 550 31,900 1,263 Climbing FlightAware ADS-B
Wed 02:59:28 PM 38.2740 -120.1670 73° East 479 551 32,600 1,114 Climbing FlightAware ADS-B
Wed 03:00:00 PM 38.2940 -120.0820 73° East 480 552 33,200 971 Climbing FlightAware ADS-B
Wed 03:00:36 PM 38.3170 -119.9830 73° East 483 556 33,700 1,059 Climbing FlightAware ADS-B
Wed 03:01:08 PM 38.3370 -119.8980 73° East 482 555 34,400 1,216 Climbing FlightAware ADS-B
Wed 03:01:50 PM 38.3630 -119.7840 74° East 481 554 35,200 987 Climbing FlightAware ADS-B
Wed 03:02:27 PM 38.3860 -119.6850 73° East 482 555 35,700 794 Climbing FlightAware ADS-B
Wed 03:02:58 PM 38.4060 -119.5970 74° East 486 559 36,100 870 Climbing FlightAware ADS-B
Wed 03:03:36 PM 38.4300 -119.4930 74° East 486 559 36,700 659 Climbing FlightAware ADS-B
Wed 03:04:20 PM 38.4580 -119.3710 74° East 489 563 37,000 217 Climbing FlightAware ADS-B
Wed 03:04:59 PM 38.4820 -119.2630 74° East 492 566 37,000  Level FlightAware ADS-B
Wed 03:05:34 PM 38.5020 -119.1620 76° East 494 568 37,000  Level FlightAware ADS-B
Wed 03:06:10 PM 38.5150 -119.0590 81° East 496 571 37,000  Level FlightAware ADS-B
Wed 03:06:48 PM 38.5260 -118.9490 83° East 498 573 37,000  Level FlightAware ADS-B
Wed 03:07:24 PM 38.5360 -118.8450 83° East 497 572 37,000  Level FlightAware ADS-B
Wed 03:07:49 PM 38.5420 -118.7850 83° East 496 571 37,000  Level FlightAware ADS-B
Wed 03:08:38 PM 38.5570 -118.6310 83° East 495 570 37,000  Level FlightAware ADS-B
Wed 03:09:16 PM 38.5680 -118.5210 83° East 495 570 37,000  Level FlightAware ADS-B
Wed 03:09:48 PM 38.5770 -118.4280 83° East 495 570 37,000  Level FlightAware ADS-B
Wed 03:10:24 PM 38.5870 -118.3230 83° East 495 570 37,000  Level FlightAware ADS-B
Wed 03:10:54 PM 38.5950 -118.2370 83° East 495 570 37,000  Level FlightAware ADS-B
Wed 03:11:32 PM 38.6050 -118.1240 84° East 496 571 37,000  Level FlightAware ADS-B
Wed 03:12:10 PM 38.6150 -118.0170 83° East 496 571 37,000  Level FlightAware ADS-B
Wed 03:12:49 PM 38.6250 -117.9200 82° East 496 571 37,000  Level FlightAware ADS-B
Wed 03:13:25 PM 38.6330 -117.8300 83° East 496 571 37,000  Level FlightAware ADS-B
Wed 03:14:01 PM 38.6420 -117.7410 83° East 496 571 37,000  Level FlightAware ADS-B
Wed 03:14:37 PM 38.6500 -117.6520 83° East 496 571 37,000  Level FlightAware ADS-B
Wed 03:15:25 PM 38.6620 -117.5330 83° East 496 571 37,000  Level FlightAware ADS-B
Wed 03:16:01 PM 38.6700 -117.4440 83° East 496 571 37,000  Level FlightAware ADS-B
Wed 03:16:50 PM 38.6820 -117.3220 83° East 496 571 37,000  Level FlightAware ADS-B
Wed 03:17:26 PM 38.6900 -117.2330 83° East 496 571 37,000  Level FlightAware ADS-B
Wed 03:18:04 PM 38.6990 -117.1380 83° East 496 571 37,000  Level FlightAware ADS-B
Wed 03:18:40 PM 38.7080 -117.0490 83° East 496 571 37,000  Level FlightAware ADS-B
Wed 03:19:16 PM 38.7160 -116.9600 83° East 496 571 37,000  Level FlightAware ADS-B
Wed 03:19:52 PM 38.7250 -116.8710 83° East 496 571 37,000  Level FlightAware ADS-B
Wed 03:20:28 PM 38.7330 -116.7810 83° East 496 571 37,000  Level FlightAware ADS-B
Wed 03:21:05 PM 38.7420 -116.6890 83° East 496 571 37,000  Level FlightAware ADS-B
Wed 03:21:42 PM 38.7510 -116.5980 83° East 496 571 37,000  Level FlightAware ADS-B
Wed 03:22:42 PM 38.8428 -116.1736 83° East 506 582 37,000  Level Salt Lake Center
Wed 03:23:44 PM 38.8689 -115.9942 79° East 511 588 37,000  Level Salt Lake Center
Wed 03:24:46 PM 38.8928 -115.8153 80° East 509 586 37,000  Level Salt Lake Center
Wed 03:25:48 PM 38.9169 -115.6358 80° East 510 587 37,000  Level Salt Lake Center
Wed 03:26:50 PM 38.9422 -115.4561 80° East 511 588 37,000  Level Salt Lake Center
Wed 03:27:52 PM 38.9689 -115.2656 80° East 515 593 37,000  Level Salt Lake Center
Wed 03:28:54 PM 38.9922 -115.0867 80° East 511 588 37,000  Level Salt Lake Center
Wed 03:29:56 PM 39.0164 -114.9069 80° East 510 587 37,000  Level Salt Lake Center
Wed 03:35:49 PM 39.1520 -113.8190 80° East 512 589 37,000  Level FlightAware ADS-B
Wed 03:36:28 PM 39.1640 -113.7190 81° East 512 589 37,000  Level FlightAware ADS-B
Wed 03:37:04 PM 39.1760 -113.6270 80° East 512 589 37,000  Level FlightAware ADS-B
Wed 03:37:40 PM 39.1920 -113.4850 82° East 515 593 37,000  Level FlightAware ADS-B
Wed 03:38:17 PM 39.2030 -113.3890 82° East 515 593 37,000  Level FlightAware ADS-B
Wed 03:38:53 PM 39.2150 -113.2960 81° East 515 593 37,000  Level FlightAware ADS-B
Wed 03:39:29 PM 39.2260 -113.2030 81° East 515 593 37,000  Level FlightAware ADS-B
Wed 03:40:15 PM 39.2469 -113.0050 82° East 519 597 37,000  Level FlightAware ADS-B
Wed 03:40:47 PM 39.2578 -112.9090 82° East 520 598 37,000  Level FlightAware ADS-B
Wed 03:41:17 PM 39.2682 -112.8160 82° East 521 600 37,000  Level FlightAware ADS-B
Wed 03:41:47 PM 39.2784 -112.7240 82° East 521 600 37,000  Level FlightAware ADS-B
Wed 03:42:22 PM 39.2901 -112.6170 82° East 521 600 37,000  Level FlightAware ADS-B
Wed 03:42:46 PM 39.2971 -112.5440 83° East 522 601 37,000  Level FlightAware ADS-B
Wed 03:43:00 PM 39.2990 -112.5000 87° East 523 602 37,000  Level FlightAware ADS-B
Wed 03:43:36 PM 39.2965 -112.3890 92° East 522 601 37,000  Level FlightAware ADS-B
Wed 03:44:06 PM 39.2918 -112.2950 94° East 522 601 37,000  Level FlightAware ADS-B
Wed 03:44:38 PM 39.2866 -112.1950 94° East 523 602 37,000  Level FlightAware ADS-B
Wed 03:45:09 PM 39.2815 -112.0980 94° East 524 603 37,000  Level FlightAware ADS-B
Wed 03:45:45 PM 39.2756 -111.9880 94° East 524 603 37,000  Level FlightAware ADS-B
Wed 03:46:18 PM 39.2700 -111.8850 94° East 524 603 37,000  Level FlightAware ADS-B
Wed 03:46:48 PM 39.2648 -111.7910 94° East 525 604 37,000  Level FlightAware ADS-B
Wed 03:47:26 PM 39.2582 -111.6730 94° East 525 604 37,000  Level FlightAware ADS-B
Wed 03:48:01 PM 39.2521 -111.5640 94° East 525 604 37,000  Level FlightAware ADS-B
Wed 03:48:32 PM 39.2465 -111.4680 94° East 525 604 37,000  Level FlightAware ADS-B
Wed 03:49:02 PM 39.2409 -111.3720 94° East 528 608 37,000  Level FlightAware ADS-B
Wed 03:49:40 PM 39.2339 -111.2550 94° East 527 606 37,000  Level FlightAware ADS-B
Wed 03:50:12 PM 39.2279 -111.1550 94° East 527 606 37,000  Level FlightAware ADS-B
Wed 03:50:43 PM 39.2220 -111.0590 95° East 528 608 37,000  Level FlightAware ADS-B
Wed 03:51:31 PM 39.2130 -110.9120 94° East 528 608 37,000  Level FlightAware ADS-B
Wed 03:52:13 PM 39.2070 -110.8070 94° East 528 608 37,000  Level FlightAware ADS-B
Wed 03:52:42 PM 39.2070 -110.8130 270° West 529 609 37,000  Level FlightAware ADS-B
Wed 03:53:19 PM 39.1910 -110.5710 95° East 530 610 37,000  Level FlightAware ADS-B
Wed 03:53:53 PM 39.1840 -110.4710 95° East 532 612 37,000  Level FlightAware ADS-B
Wed 03:54:30 PM 39.1770 -110.3620 95° East 533 613 37,000  Level FlightAware ADS-B
Wed 03:55:04 PM 39.1690 -110.2420 95° East 533 613 37,000  Level FlightAware ADS-B
Wed 03:55:45 PM 39.1600 -110.1220 95° East 535 616 37,000  Level FlightAware ADS-B
Wed 03:56:21 PM 39.1520 -110.0080 95° East 536 617 37,000  Level FlightAware ADS-B
Wed 03:56:58 PM 39.1430 -109.8830 95° East 537 618 37,000  Level FlightAware ADS-B
Wed 03:57:31 PM 39.1360 -109.7780 95° East 537 618 37,000  Level FlightAware ADS-B
Wed 03:58:03 PM 39.1280 -109.6760 96° East 537 618 37,000  Level FlightAware ADS-B
Wed 03:58:43 PM 39.1190 -109.5450 95° East 538 619 37,000  Level FlightAware ADS-B
Wed 03:59:15 PM 39.1120 -109.4520 96° East 538 619 37,000  Level FlightAware ADS-B
Wed 03:59:51 PM 39.1020 -109.3290 96° East 539 620 37,000  Level FlightAware ADS-B
Wed 04:00:23 PM 39.0950 -109.2330 95° East 540 621 37,000  Level FlightAware ADS-B
Wed 04:01:00 PM 39.0860 -109.1250 96° East 539 620 37,000  Level FlightAware ADS-B
Wed 04:01:35 PM 39.0760 -108.9980 96° East 540 621 37,000  Level FlightAware ADS-B
Wed 04:02:07 PM 39.0680 -108.9010 96° East 540 621 37,000  Level FlightAware ADS-B
Wed 04:02:43 PM 39.0630 -108.7920 93° East 542 624 37,000  Level FlightAware ADS-B
Wed 04:03:25 PM 39.0690 -108.6450 87° East 541 623 37,000  Level FlightAware ADS-B
Wed 04:03:59 PM 39.0770 -108.5380 84° East 543 625 37,000  Level FlightAware ADS-B
Wed 04:04:41 PM 39.0860 -108.4010 85° East 543 625 37,000  Level FlightAware ADS-B
Wed 04:05:13 PM 39.0930 -108.2990 85° East 544 626 37,000  Level FlightAware ADS-B
Wed 04:05:43 PM 39.1000 -108.2020 85° East 543 625 37,000  Level FlightAware ADS-B
Wed 04:06:21 PM 39.1080 -108.0800 85° East 544 626 37,000  Level FlightAware ADS-B
Wed 04:06:56 PM 39.1150 -107.9660 85° East 544 626 37,000  Level FlightAware ADS-B
Wed 04:07:37 PM 39.1230 -107.8360 85° East 544 626 37,000  Level FlightAware ADS-B
Wed 04:08:07 PM 39.1290 -107.7370 86° East 544 626 37,000  Level FlightAware ADS-B
Wed 04:08:31 PM 39.1340 -107.6560 85° East 545 627 37,000  Level FlightAware ADS-B
Wed 04:09:03 PM 39.1400 -107.5540 86° East 544 626 37,000  Level FlightAware ADS-B
Wed 04:09:35 PM 39.1462 -107.4510 86° East 544 626 37,000  Level FlightAware ADS-B
Wed 04:10:06 PM 39.1519 -107.3510 86° East 545 627 37,000  Level FlightAware ADS-B
Wed 04:10:37 PM 39.1576 -107.2510 86° East 545 627 37,000  Level FlightAware ADS-B
Wed 04:11:08 PM 39.1633 -107.1510 86° East 543 625 37,000  Level FlightAware ADS-B
Wed 04:11:45 PM 39.1701 -107.0300 86° East 544 626 37,000  Level FlightAware ADS-B
Wed 04:12:16 PM 39.1754 -106.9320 86° East 545 627 37,000  Level FlightAware ADS-B
Wed 04:12:49 PM 39.1812 -106.8250 86° East 544 626 37,000  Level FlightAware ADS-B
Wed 04:13:20 PM 39.1864 -106.7260 86° East 544 626 37,000  Level FlightAware ADS-B
Wed 04:13:52 PM 39.1918 -106.6230 86° East 543 625 37,000  Level FlightAware ADS-B
Wed 04:14:22 PM 39.1967 -106.5260 86° East 543 625 37,000  Level FlightAware ADS-B
Wed 04:14:54 PM 39.2020 -106.4210 86° East 544 626 37,000  Level FlightAware ADS-B
Wed 04:15:24 PM 39.2068 -106.3240 86° East 544 626 37,000  Level FlightAware ADS-B
Wed 04:15:55 PM 39.2116 -106.2260 86° East 544 626 37,000  Level FlightAware ADS-B
Wed 04:16:25 PM 39.2163 -106.1280 86° East 544 626 37,000  Level FlightAware ADS-B
Wed 04:16:55 PM 39.2208 -106.0300 87° East 544 626 37,000  Level FlightAware ADS-B
Wed 04:17:26 PM 39.2254 -105.9320 87° East 545 627 37,000  Level FlightAware ADS-B
Wed 04:17:56 PM 39.2298 -105.8340 87° East 545 627 37,000  Level FlightAware ADS-B
Wed 04:18:26 PM 39.2341 -105.7360 87° East 545 627 37,000  Level FlightAware ADS-B
Wed 04:18:57 PM 39.2384 -105.6370 87° East 543 625 37,000  Level FlightAware ADS-B
Wed 04:19:27 PM 39.2425 -105.5400 87° East 543 625 37,000  Level FlightAware ADS-B
Wed 04:19:58 PM 39.2467 -105.4400 87° East 543 625 37,000  Level FlightAware ADS-B
Wed 04:20:29 PM 39.2508 -105.3410 87° East 543 625 37,000  Level FlightAware ADS-B
Wed 04:21:02 PM 39.2550 -105.2340 87° East 543 625 37,000  Level FlightAware ADS-B
Wed 04:21:32 PM 39.2589 -105.1360 87° East 544 626 37,000  Level FlightAware ADS-B
Wed 04:22:03 PM 39.2626 -105.0380 87° East 544 626 37,000  Level FlightAware ADS-B
Wed 04:22:33 PM 39.2663 -104.9400 87° East 545 627 37,000  Level FlightAware ADS-B
Wed 04:23:04 PM 39.2699 -104.8400 87° East 545 627 37,000  Level FlightAware ADS-B
Wed 04:23:34 PM 39.2734 -104.7430 87° East 544 626 37,000  Level FlightAware ADS-B
Wed 04:24:05 PM 39.2769 -104.6420 87° East 546 628 37,000  Level FlightAware ADS-B
Wed 04:24:35 PM 39.2802 -104.5440 87° East 546 628 37,000  Level FlightAware ADS-B
Wed 04:25:06 PM 39.2835 -104.4460 87° East 546 628 37,000  Level FlightAware ADS-B
Wed 04:25:36 PM 39.2867 -104.3480 88° East 546 628 37,000  Level FlightAware ADS-B
Wed 04:26:06 PM 39.2898 -104.2490 88° East 545 627 37,000  Level FlightAware ADS-B
Wed 04:26:36 PM 39.2928 -104.1510 88° East 546 628 37,000  Level FlightAware ADS-B
Wed 04:27:07 PM 39.2958 -104.0500 88° East 545 627 37,000  Level FlightAware ADS-B
Wed 04:27:38 PM 39.2986 -103.9520 88° East 546 628 37,000  Level FlightAware ADS-B
Wed 04:28:08 PM 39.3014 -103.8540 88° East 545 627 37,000  Level FlightAware ADS-B
Wed 04:28:38 PM 39.3040 -103.7560 88° East 544 626 37,000  Level FlightAware ADS-B
Wed 04:29:08 PM 39.3066 -103.6580 88° East 543 625 37,000  Level FlightAware ADS-B
Wed 04:29:33 PM 39.3091 -103.5780 88° East 541 623 37,000  Level FlightAware ADS-B
Wed 04:30:05 PM 39.3175 -103.4770 84° East 540 621 37,000  Level FlightAware ADS-B
Wed 04:30:35 PM 39.3264 -103.3790 83° East 539 620 37,000  Level FlightAware ADS-B
Wed 04:31:06 PM 39.3352 -103.2830 83° East 538 619 37,000  Level FlightAware ADS-B
Wed 04:31:37 PM 39.3443 -103.1850 83° East 538 619 37,000  Level FlightAware ADS-B
Wed 04:32:07 PM 39.3534 -103.0870 83° East 538 619 37,000  Level FlightAware ADS-B
Wed 04:32:38 PM 39.3624 -102.9890 83° East 538 619 37,000  Level FlightAware ADS-B
Wed 04:33:09 PM 39.3716 -102.8900 83° East 538 619 37,000  Level FlightAware ADS-B
Wed 04:33:39 PM 39.3807 -102.7950 83° East 538 619 37,000  Level FlightAware ADS-B
Wed 04:34:09 PM 39.3900 -102.6990 83° East 538 619 37,000  Level FlightAware ADS-B
Wed 04:34:40 PM 39.3996 -102.6010 83° East 538 619 37,000  Level FlightAware ADS-B
Wed 04:35:11 PM 39.4093 -102.5030 83° East 538 619 37,000  Level FlightAware ADS-B
Wed 04:35:41 PM 39.4190 -102.4060 83° East 538 619 37,000  Level FlightAware ADS-B
Wed 04:36:11 PM 39.4286 -102.3110 83° East 538 619 37,000  Level FlightAware ADS-B
Wed 04:36:42 PM 39.4384 -102.2140 83° East 537 618 37,000  Level FlightAware ADS-B
Wed 04:37:12 PM 39.4480 -102.1160 83° East 537 618 37,000  Level FlightAware ADS-B
Wed 04:37:43 PM 39.4557 -102.0180 84° East 538 619 37,000  Level FlightAware ADS-B
Wed 04:38:13 PM 39.4633 -101.9220 84° East 538 619 37,000  Level FlightAware ADS-B
Wed 04:38:42 PM 39.4704 -101.8300 84° East 539 620 37,000  Level FlightAware ADS-B
Wed 04:39:12 PM 39.4750 -101.7320 86° East 540 621 37,000  Level FlightAware ADS-B
Wed 04:39:47 PM 39.4799 -101.6200 87° East 540 621 37,000  Level FlightAware ADS-B
Wed 04:40:20 PM 39.4846 -101.5150 87° East 538 619 37,000  Level FlightAware ADS-B
Wed 04:40:50 PM 39.4890 -101.4180 87° East 537 618 37,000  Level FlightAware ADS-B
Wed 04:41:20 PM 39.4932 -101.3220 87° East 535 616 37,000  Level FlightAware ADS-B
Wed 04:41:51 PM 39.4975 -101.2250 87° East 533 613 37,000  Level FlightAware ADS-B
Wed 04:42:21 PM 39.5016 -101.1290 87° East 531 611 37,000  Level FlightAware ADS-B
Wed 04:42:52 PM 39.5058 -101.0310 87° East 529 609 37,000  Level FlightAware ADS-B
Wed 04:43:23 PM 39.5102 -100.9340 87° East 529 609 37,000  Level FlightAware ADS-B
Wed 04:44:18 PM 39.5178 -100.7764 87° East 525 604 37,000  Level Denver Center
Wed 04:45:20 PM 39.5269 -100.5947 86° East 528 608 37,000  Level Denver Center
Wed 04:46:22 PM 39.5392 -100.3847 86° East 528 608 37,000  Level Denver Center
Wed 04:47:24 PM 39.5544 -100.2042 84° East 528 608 37,000  Level Denver Center
Wed 04:48:26 PM 39.5686 -99.9939 85° East 527 606 37,000  Level Denver Center
Wed 04:49:28 PM 39.5817 -99.8169 84° East 528 608 37,000  Level Denver Center
Wed 04:50:30 PM 39.5939 -99.6286 85° East 527 606 37,000 317 Level Denver Center
Wed 04:55:46 PM 39.6590 -98.6110 85° East 515 593 39,000 254 Climbing FlightAware ADS-B
Wed 04:58:23 PM 39.6870 -98.1230 86° East 528 608 39,000  Level FlightAware ADS-B
Wed 04:59:03 PM 39.6940 -97.9970 86° East 528 608 39,000  Level FlightAware ADS-B
Wed 04:59:43 PM 39.7000 -97.8700 86° East 527 606 39,000  Level FlightAware ADS-B
Wed 05:00:21 PM 39.7070 -97.7500 86° East 526 605 39,000  Level FlightAware ADS-B
Wed 05:00:53 PM 39.7120 -97.6480 86° East 525 604 39,000  Level FlightAware ADS-B
Wed 05:01:29 PM 39.7170 -97.5390 87° East 522 601 39,000  Level FlightAware ADS-B
Wed 05:02:05 PM 39.7230 -97.4280 86° East 520 598 39,000  Level FlightAware ADS-B
Wed 05:02:41 PM 39.7280 -97.3200 87° East 518 596 39,000  Level FlightAware ADS-B
Wed 05:03:31 PM 39.7350 -97.1710 86° East 516 594 39,000  Level FlightAware ADS-B
Wed 05:04:02 PM 39.7400 -97.0680 86° East 513 590 39,000  Level FlightAware ADS-B
Wed 05:04:32 PM 39.7440 -96.9700 87° East 512 589 39,000  Level FlightAware ADS-B
Wed 05:05:05 PM 39.7490 -96.8690 86° East 511 588 39,000  Level FlightAware ADS-B
Wed 05:05:51 PM 39.7550 -96.7300 87° East 511 588 39,000  Level FlightAware ADS-B
Wed 05:06:26 PM 39.7590 -96.6230 87° East 511 588 39,000  Level FlightAware ADS-B
Wed 05:06:57 PM 39.7630 -96.5270 87° East 512 589 39,000  Level FlightAware ADS-B
Wed 05:07:34 PM 39.7680 -96.4120 87° East 512 589 39,000  Level FlightAware ADS-B
Wed 05:08:04 PM 39.7710 -96.3210 88° East 513 590 39,000  Level FlightAware ADS-B
Wed 05:08:46 PM 39.7760 -96.1950 87° East 513 590 39,000  Level FlightAware ADS-B
Wed 05:09:21 PM 39.7800 -96.0860 87° East 513 590 39,000  Level FlightAware ADS-B
Wed 05:09:58 PM 39.7840 -95.9720 87° East 512 589 39,000  Level FlightAware ADS-B
Wed 05:10:30 PM 39.7880 -95.8740 87° East 511 588 39,000  Level FlightAware ADS-B
Wed 05:11:07 PM 39.7920 -95.7610 87° East 510 587 39,000  Level FlightAware ADS-B
Wed 05:11:38 PM 39.7950 -95.6670 88° East 509 586 39,000  Level FlightAware ADS-B
Wed 05:12:14 PM 39.7990 -95.5540 87° East 509 586 39,000  Level FlightAware ADS-B
Wed 05:12:50 PM 39.8020 -95.4450 88° East 509 586 39,000  Level FlightAware ADS-B
Wed 05:13:28 PM 39.8060 -95.3330 87° East 508 585 39,000  Level FlightAware ADS-B
Wed 05:14:03 PM 39.8090 -95.2230 88° East 508 585 39,000  Level FlightAware ADS-B
Wed 05:14:35 PM 39.8120 -95.1260 88° East 508 585 39,000  Level FlightAware ADS-B
Wed 05:15:11 PM 39.8150 -95.0190 88° East 507 583 39,000  Level FlightAware ADS-B
Wed 05:15:42 PM 39.8170 -94.9230 88° East 507 583 39,000  Level FlightAware ADS-B
Wed 05:16:22 PM 39.8200 -94.8010 88° East 507 583 39,000  Level FlightAware ADS-B
Wed 05:16:54 PM 39.8230 -94.7020 88° East 508 585 39,000  Level FlightAware ADS-B
Wed 05:17:30 PM 39.8260 -94.5930 88° East 507 583 39,000  Level FlightAware ADS-B
Wed 05:18:06 PM 39.8280 -94.4860 89° East 507 583 39,000  Level FlightAware ADS-B
Wed 05:18:40 PM 39.8310 -94.3810 88° East 507 583 39,000  Level FlightAware ADS-B
Wed 05:19:16 PM 39.8330 -94.2700 89° East 506 582 39,000  Level FlightAware ADS-B
Wed 05:19:50 PM 39.8350 -94.1670 89° East 505 581 39,000  Level FlightAware ADS-B
Wed 05:20:26 PM 39.8370 -94.0570 89° East 504 580 39,000  Level FlightAware ADS-B
Wed 05:21:02 PM 39.8390 -93.9510 89° East 502 578 39,000  Level FlightAware ADS-B
Wed 05:21:34 PM 39.8410 -93.8560 88° East 502 578 39,000  Level FlightAware ADS-B
Wed 05:22:12 PM 39.8430 -93.7380 89° East 501 577 39,000  Level FlightAware ADS-B
Wed 05:22:42 PM 39.8450 -93.6480 88° East 501 577 39,000  Level FlightAware ADS-B
Wed 05:23:20 PM 39.8460 -93.5350 89° East 500 575 39,000  Level FlightAware ADS-B
Wed 05:23:56 PM 39.8480 -93.4270 89° East 499 574 39,000  Level FlightAware ADS-B
Wed 05:24:32 PM 39.8490 -93.3210 89° East 497 572 39,000  Level FlightAware ADS-B
Wed 05:25:08 PM 39.8510 -93.2120 89° East 497 572 39,000  Level FlightAware ADS-B
Wed 05:25:42 PM 39.8520 -93.1110 89° East 496 571 39,000  Level FlightAware ADS-B
Wed 05:26:16 PM 39.8530 -93.0090 89° East 494 568 39,000  Level FlightAware ADS-B
Wed 05:27:08 PM 39.8550 -92.8670 89° East 493 567 39,000  Level FlightAware ADS-B
Wed 05:27:39 PM 39.8550 -92.7670 90° East 487 560 39,000  Level FlightAware ADS-B
Wed 05:28:09 PM 39.8560 -92.6790 89° East 485 558 39,000  Level FlightAware ADS-B
Wed 05:28:46 PM 39.8570 -92.5720 89° East 483 556 39,000  Level FlightAware ADS-B
Wed 05:29:23 PM 39.8570 -92.4680 90° East 481 554 39,000  Level FlightAware ADS-B
Wed 05:30:07 PM 39.8590 -92.3530 89° East 480 552 39,000  Level FlightAware ADS-B
Wed 05:30:41 PM 39.8580 -92.2410 91° East 477 549 39,000  Level FlightAware ADS-B
Wed 05:31:17 PM 39.8590 -92.1390 89° East 475 547 39,000  Level FlightAware ADS-B
Wed 05:31:51 PM 39.8590 -92.0460 90° East 473 544 39,000  Level FlightAware ADS-B
Wed 05:32:42 PM 39.8600 -91.9070 89° East 473 544 39,000  Level FlightAware ADS-B
Wed 05:33:17 PM 39.8590 -91.7980 91° East 471 542 39,000  Level FlightAware ADS-B
Wed 05:33:51 PM 39.8590 -91.7070 90° East 471 542 39,000  Level FlightAware ADS-B
Wed 05:34:33 PM 39.8590 -91.5860 90° East 471 542 39,000  Level FlightAware ADS-B
Wed 05:35:20 PM 39.8590 -91.4650 90° East 471 542 39,000  Level FlightAware ADS-B
Wed 05:35:57 PM 39.8580 -91.3460 91° East 474 545 39,000  Level FlightAware ADS-B
Wed 05:36:31 PM 39.8580 -91.2480 90° East 475 547 39,000  Level FlightAware ADS-B
Wed 05:37:07 PM 39.8570 -91.1460 91° East 477 549 39,000  Level FlightAware ADS-B
Wed 05:37:43 PM 39.8570 -91.0430 90° East 479 551 39,000  Level FlightAware ADS-B
Wed 05:38:19 PM 39.8560 -90.9380 91° East 481 554 39,000  Level FlightAware ADS-B
Wed 05:38:53 PM 39.8550 -90.8430 91° East 482 555 39,000  Level FlightAware ADS-B
Wed 05:39:27 PM 39.8540 -90.7420 91° East 483 556 39,000  Level FlightAware ADS-B
Wed 05:40:03 PM 39.8530 -90.6370 91° East 484 557 39,000  Level FlightAware ADS-B
Wed 05:40:43 PM 39.8520 -90.5260 91° East 485 558 39,000  Level FlightAware ADS-B
Wed 05:41:16 PM 39.8510 -90.4380 91° East 486 559 39,000  Level FlightAware ADS-B
Wed 05:42:03 PM 39.8490 -90.2860 91° East 487 560 39,000  Level FlightAware ADS-B
Wed 05:42:37 PM 39.8480 -90.1900 91° East 488 562 39,000  Level FlightAware ADS-B
Wed 05:43:09 PM 39.8470 -90.0940 91° East 488 562 39,000  Level FlightAware ADS-B
Wed 05:43:45 PM 39.8450 -89.9900 91° East 488 562 39,000  Level FlightAware ADS-B
Wed 05:44:23 PM 39.8430 -89.8800 91° East 488 562 39,000  Level FlightAware ADS-B
Wed 05:44:59 PM 39.8410 -89.7750 91° East 488 562 39,000  Level FlightAware ADS-B
Wed 05:45:31 PM 39.8400 -89.6820 91° East 489 563 39,000  Level FlightAware ADS-B
Wed 05:46:16 PM 39.8400 -89.5490 90° East 490 564 39,000  Level FlightAware ADS-B
Wed 05:46:52 PM 39.8410 -89.4400 89° East 491 565 39,000  Level FlightAware ADS-B
Wed 05:47:24 PM 39.8420 -89.3490 89° East 492 566 39,000  Level FlightAware ADS-B
Wed 05:48:00 PM 39.8420 -89.2430 90° East 493 567 39,000  Level FlightAware ADS-B
Wed 05:48:34 PM 39.8420 -89.1400 90° East 494 568 39,000  Level FlightAware ADS-B
Wed 05:49:22 PM 39.8420 -89.0010 90° East 495 570 39,000  Level FlightAware ADS-B
Wed 05:49:59 PM 39.8420 -88.8930 90° East 496 571 39,000  Level FlightAware ADS-B
Wed 05:50:33 PM 39.8420 -88.7860 90° East 497 572 39,000  Level FlightAware ADS-B
Wed 05:51:09 PM 39.8420 -88.6770 90° East 497 572 39,000  Level FlightAware ADS-B
Wed 05:51:44 PM 39.8420 -88.5780 90° East 497 572 39,000  Level FlightAware ADS-B
Wed 05:52:15 PM 39.8420 -88.4830 90° East 498 573 39,000  Level FlightAware ADS-B
Wed 05:52:51 PM 39.8410 -88.3750 91° East 498 573 39,000  Level FlightAware ADS-B
Wed 05:53:25 PM 39.8410 -88.2730 90° East 499 574 39,000  Level FlightAware ADS-B
Wed 05:54:01 PM 39.8400 -88.1640 91° East 499 574 39,000  Level FlightAware ADS-B
Wed 05:54:37 PM 39.8390 -88.0560 91° East 499 574 39,000  Level FlightAware ADS-B
Wed 05:55:11 PM 39.8390 -87.9570 90° East 499 574 39,000  Level FlightAware ADS-B
Wed 05:55:51 PM 39.8380 -87.8380 91° East 500 575 39,000  Level FlightAware ADS-B
Wed 05:56:19 PM 39.8370 -87.7530 91° East 500 575 39,000  Level FlightAware ADS-B
Wed 05:56:57 PM 39.8360 -87.6380 91° East 502 578 39,000  Level FlightAware ADS-B
Wed 05:57:32 PM 39.8340 -87.5340 91° East 503 579 39,000  Level FlightAware ADS-B
Wed 05:58:03 PM 39.8330 -87.4420 91° East 504 580 39,000  Level FlightAware ADS-B
Wed 05:58:43 PM 39.8320 -87.3200 91° East 506 582 39,000  Level FlightAware ADS-B
Wed 05:59:20 PM 39.8300 -87.2060 91° East 508 585 39,000  Level FlightAware ADS-B
Wed 05:59:52 PM 39.8290 -87.1100 91° East 509 586 39,000  Level FlightAware ADS-B
Wed 06:00:26 PM 39.8270 -87.0010 91° East 510 587 39,000  Level FlightAware ADS-B
Wed 06:01:00 PM 39.8250 -86.9000 91° East 511 588 39,000  Level FlightAware ADS-B
Wed 06:01:38 PM 39.8230 -86.7850 91° East 513 590 39,000  Level FlightAware ADS-B
Wed 06:02:14 PM 39.8210 -86.6730 91° East 514 592 39,000  Level FlightAware ADS-B
Wed 06:02:51 PM 39.8190 -86.5620 91° East 515 593 39,000  Level FlightAware ADS-B
Wed 06:03:20 PM 39.8170 -86.4700 92° East 515 593 39,000  Level FlightAware ADS-B
Wed 06:04:00 PM 39.8220 -86.3450 87° East 509 586 39,000  Level FlightAware ADS-B
Wed 06:04:32 PM 39.8400 -86.2510 76° East 508 585 39,000 469 Level FlightAware ADS-B
Wed 06:05:04 PM 39.8600 -86.1560 75° East 506 582 39,500 833 Climbing FlightAware ADS-B
Wed 06:05:44 PM 39.8840 -86.0400 75° East 500 575 40,000 366 Climbing FlightAware ADS-B
Wed 06:06:26 PM 39.9100 -85.9190 74° East 492 566 40,000  Level FlightAware ADS-B
Wed 06:06:59 PM 39.9290 -85.8270 75° East 489 563 40,000  Level FlightAware ADS-B
Wed 06:07:32 PM 39.9490 -85.7320 75° East 488 562 40,000  Level FlightAware ADS-B
Wed 06:08:11 PM 39.9730 -85.6200 74° East 490 564 40,000  Level FlightAware ADS-B
Wed 06:08:47 PM 39.9940 -85.5180 75° East 493 567 40,000  Level FlightAware ADS-B
Wed 06:09:23 PM 40.0150 -85.4130 75° East 496 571 40,000  Level FlightAware ADS-B
Wed 06:09:55 PM 40.0340 -85.3240 74° East 497 572 40,000  Level FlightAware ADS-B
Wed 06:10:32 PM 40.0560 -85.2140 75° East 499 574 40,000  Level FlightAware ADS-B
Wed 06:11:08 PM 40.0770 -85.1110 75° East 500 575 40,000  Level FlightAware ADS-B
Wed 06:11:39 PM 40.0950 -85.0240 75° East 502 578 40,000  Level FlightAware ADS-B
Wed 06:12:24 PM 40.1210 -84.8930 75° East 504 580 40,000  Level FlightAware ADS-B
Wed 06:13:00 PM 40.1430 -84.7830 75° East 504 580 40,000  Level FlightAware ADS-B
Wed 06:13:31 PM 40.1610 -84.6920 75° East 504 580 40,000  Level FlightAware ADS-B
Wed 06:14:08 PM 40.1820 -84.5870 75° East 504 580 40,000  Level FlightAware ADS-B
Wed 06:14:41 PM 40.2020 -84.4870 75° East 502 578 40,000  Level FlightAware ADS-B
Wed 06:15:20 PM 40.2230 -84.3750 76° East 502 578 40,000  Level FlightAware ADS-B
Wed 06:15:52 PM 40.2430 -84.2760 75° East 500 575 40,000  Level FlightAware ADS-B
Wed 06:16:26 PM 40.2630 -84.1750 75° East 500 575 40,000  Level FlightAware ADS-B
Wed 06:17:02 PM 40.2850 -84.0760 74° East 496 571 40,000  Level FlightAware ADS-B
Wed 06:17:36 PM 40.3230 -83.9840 62° Northeast 485 558 40,000  Level FlightAware ADS-B
Wed 06:18:12 PM 40.3700 -83.9020 53° Northeast 485 558 40,000  Level FlightAware ADS-B
Wed 06:18:48 PM 40.4180 -83.8180 53° Northeast 485 558 40,000  Level FlightAware ADS-B
Wed 06:19:24 PM 40.4680 -83.7340 52° Northeast 484 557 40,000  Level FlightAware ADS-B
Wed 06:19:56 PM 40.5110 -83.6600 53° Northeast 483 556 40,000  Level FlightAware ADS-B
Wed 06:20:34 PM 40.5620 -83.5720 53° Northeast 481 554 40,000  Level FlightAware ADS-B
Wed 06:21:06 PM 40.6060 -83.4960 53° Northeast 481 554 40,000  Level FlightAware ADS-B
Wed 06:21:42 PM 40.6540 -83.4120 53° Northeast 482 555 40,000  Level FlightAware ADS-B
Wed 06:22:18 PM 40.7020 -83.3280 53° Northeast 482 555 40,000  Level FlightAware ADS-B
Wed 06:22:52 PM 40.7480 -83.2470 53° Northeast 482 555 40,000  Level FlightAware ADS-B
Wed 06:23:28 PM 40.7950 -83.1650 53° Northeast 483 556 40,000  Level FlightAware ADS-B
Wed 06:23:58 PM 40.8380 -83.0910 52° Northeast 485 558 40,000  Level FlightAware ADS-B
Wed 06:24:32 PM 40.8830 -83.0120 53° Northeast 486 559 40,000  Level FlightAware ADS-B
Wed 06:25:14 PM 40.9390 -82.9110 54° Northeast 488 562 40,000  Level FlightAware ADS-B
Wed 06:25:50 PM 40.9880 -82.8260 53° Northeast 489 563 40,000  Level FlightAware ADS-B
Wed 06:26:22 PM 41.0320 -82.7460 54° Northeast 490 564 40,000  Level FlightAware ADS-B
Wed 06:26:58 PM 41.0790 -82.6640 53° Northeast 491 565 40,000  Level FlightAware ADS-B
Wed 06:27:35 PM 41.1290 -82.5740 54° Northeast 491 565 40,000  Level FlightAware ADS-B
Wed 06:28:00 PM 41.1640 -82.5110 54° Northeast 491 565 40,000  Level FlightAware ADS-B
Wed 06:28:42 PM 41.2190 -82.4130 53° Northeast 490 564 40,000  Level FlightAware ADS-B
Wed 06:29:18 PM 41.2680 -82.3240 54° Northeast 489 563 40,000  Level FlightAware ADS-B
Wed 06:29:54 PM 41.3180 -82.2350 53° Northeast 487 560 40,000  Level FlightAware ADS-B
Wed 06:30:26 PM 41.3560 -82.1550 58° Northeast 490 564 40,000  Level FlightAware ADS-B
Wed 06:31:04 PM 41.3910 -82.0500 66° East 495 570 40,000  Level FlightAware ADS-B
Wed 06:31:40 PM 41.4210 -81.9470 69° East 496 571 40,000  Level FlightAware ADS-B
Wed 06:32:12 PM 41.4470 -81.8550 69° East 496 571 40,000  Level FlightAware ADS-B
Wed 06:32:47 PM 41.4740 -81.7580 70° East 497 572 40,000  Level FlightAware ADS-B
Wed 06:33:24 PM 41.5050 -81.6500 69° East 498 573 40,000  Level FlightAware ADS-B
Wed 06:34:00 PM 41.5340 -81.5470 69° East 498 573 40,000  Level FlightAware ADS-B
Wed 06:34:32 PM 41.5600 -81.4550 69° East 498 573 40,000  Level FlightAware ADS-B
Wed 06:35:08 PM 41.5900 -81.3500 69° East 498 573 40,000  Level FlightAware ADS-B
Wed 06:35:40 PM 41.6140 -81.2620 70° East 498 573 40,000  Level FlightAware ADS-B
Wed 06:36:18 PM 41.6460 -81.1500 69° East 499 574 40,000  Level FlightAware ADS-B
Wed 06:36:54 PM 41.6750 -81.0460 69° East 498 573 40,000  Level FlightAware ADS-B
Wed 06:37:30 PM 41.7040 -80.9410 70° East 498 573 40,000  Level FlightAware ADS-B
Wed 06:38:02 PM 41.7290 -80.8490 70° East 498 573 40,000  Level FlightAware ADS-B
Wed 06:38:38 PM 41.7570 -80.7470 70° East 497 572 40,000  Level FlightAware ADS-B
Wed 06:39:14 PM 41.7860 -80.6420 70° East 496 571 40,000  Level FlightAware ADS-B
Wed 06:39:44 PM 41.8090 -80.5560 70° East 494 568 40,000  Level FlightAware ADS-B
Wed 06:40:22 PM 41.8390 -80.4470 70° East 493 567 40,000  Level FlightAware ADS-B
Wed 06:40:56 PM 41.8650 -80.3510 70° East 492 566 40,000  Level FlightAware ADS-B
Wed 06:41:34 PM 41.8940 -80.2420 70° East 491 565 40,000  Level FlightAware ADS-B
Wed 06:42:06 PM 41.9190 -80.1500 70° East 490 564 40,000  Level FlightAware ADS-B
Wed 06:42:43 PM 41.9390 -80.0410 76° East 494 568 40,000  Level FlightAware ADS-B
Wed 06:43:16 PM 41.9410 -79.9420 88° East 497 572 40,000  Level FlightAware ADS-B
Wed 06:43:53 PM 41.9380 -79.8310 92° East 497 572 40,000  Level FlightAware ADS-B
Wed 06:44:28 PM 41.9350 -79.7160 92° East 498 573 40,000  Level FlightAware ADS-B
Wed 06:45:07 PM 41.9310 -79.6030 93° East 498 573 40,000  Level FlightAware ADS-B
Wed 06:45:40 PM 41.9270 -79.4940 93° East 499 574 40,000  Level FlightAware ADS-B
Wed 06:46:17 PM 41.9230 -79.3860 93° East 500 575 40,000  Level FlightAware ADS-B
Wed 06:46:54 PM 41.9190 -79.2660 93° East 501 577 40,000  Level FlightAware ADS-B
Wed 06:47:28 PM 41.9150 -79.1630 93° East 502 578 40,000  Level FlightAware ADS-B
Wed 06:48:08 PM 41.9100 -79.0360 93° East 504 580 40,000  Level FlightAware ADS-B
Wed 06:48:39 PM 41.9070 -78.9410 92° East 504 580 40,000  Level FlightAware ADS-B
Wed 06:49:11 PM 41.9040 -78.8440 92° East 504 580 40,000  Level FlightAware ADS-B
Wed 06:49:53 PM 41.8990 -78.7100 93° East 505 581 40,000  Level FlightAware ADS-B
Wed 06:50:25 PM 41.8960 -78.6100 92° East 505 581 40,000  Level FlightAware ADS-B
Wed 06:51:01 PM 41.8910 -78.4980 93° East 505 581 40,000  Level FlightAware ADS-B
Wed 06:51:37 PM 41.8870 -78.3840 93° East 507 583 40,000  Level FlightAware ADS-B
Wed 06:52:09 PM 41.8830 -78.2920 93° East 507 583 40,000  Level FlightAware ADS-B
Wed 06:52:45 PM 41.8790 -78.1780 93° East 508 585 40,000  Level FlightAware ADS-B
Wed 06:53:19 PM 41.8740 -78.0650 93° East 508 585 40,000  Level FlightAware ADS-B
Wed 06:53:57 PM 41.8690 -77.9430 93° East 508 585 40,000  Level FlightAware ADS-B
Wed 06:54:29 PM 41.8600 -77.8470 97° East 505 581 40,000  Level FlightAware ADS-B
Wed 06:55:05 PM 41.8350 -77.7390 107° East 500 575 40,000  Level FlightAware ADS-B
Wed 06:55:37 PM 41.8110 -77.6460 109° East 499 574 40,000  Level FlightAware ADS-B
Wed 06:56:17 PM 41.7790 -77.5270 110° East 501 577 40,000  Level FlightAware ADS-B
Wed 06:56:51 PM 41.7530 -77.4280 109° East 501 577 40,000  Level FlightAware ADS-B
Wed 06:57:23 PM 41.7280 -77.3360 110° East 503 579 40,000  Level FlightAware ADS-B
Wed 06:57:57 PM 41.7020 -77.2360 109° East 501 577 40,000  Level FlightAware ADS-B
Wed 06:58:37 PM 41.6710 -77.1210 110° East 500 575 40,000  Level FlightAware ADS-B
Wed 06:59:11 PM 41.6440 -77.0230 110° East 501 577 40,000 -265 Level FlightAware ADS-B
Wed 06:59:45 PM 41.6170 -76.9250 110° East 497 572 39,700 -783 Descending FlightAware ADS-B
Wed 06:59:57 PM 41.6072 -76.8877 109° East 500 575 39,400 -1,116 Descending FlightAware ADS-B
Wed 07:00:28 PM 41.5831 -76.7993 110° East 497 572 38,900 -1,182 Descending FlightAware ADS-B
Wed 07:01:03 PM 41.5547 -76.6959 110° East 500 575 38,100 -1,324 Descending FlightAware ADS-B
Wed 07:01:36 PM 41.5291 -76.6027 110° East 503 579 37,400 -1,048 Descending FlightAware ADS-B
Wed 07:02:06 PM 41.5050 -76.5152 110° East 504 580 37,000 -358 Descending FlightAware ADS-B
Wed 07:02:43 PM 41.4751 -76.4070 110° East 505 581 37,000  Level FlightAware ADS-B
Wed 07:03:13 PM 41.4501 -76.3174 110° East 512 589 37,000 -94 Level FlightAware ADS-B
Wed 07:03:47 PM 41.4229 -76.2199 110° East 511 588 36,900 -1,182 Descending FlightAware ADS-B
Wed 07:04:19 PM 41.3963 -76.1248 110° East 511 588 35,700 -2,531 Descending FlightAware ADS-B
Wed 07:04:51 PM 41.3698 -76.0306 111° Southeast 520 598 34,200 -2,806 Descending FlightAware ADS-B
Wed 07:05:21 PM 41.3440 -75.9398 111° Southeast 523 602 32,800 -2,951 Descending FlightAware ADS-B
Wed 07:05:52 PM 41.3178 -75.8477 111° Southeast 525 604 31,200 -3,048 Descending FlightAware ADS-B
Wed 07:06:24 PM 41.2903 -75.7509 111° Southeast 528 608 29,600 -3,048 Descending FlightAware ADS-B
Wed 07:06:55 PM 41.2619 -75.6577 112° Southeast 525 604 28,000 -2,852 Descending FlightAware ADS-B
Wed 07:07:25 PM 41.2327 -75.5681 113° Southeast 514 592 26,700 -2,613 Descending FlightAware ADS-B
Wed 07:07:57 PM 41.2024 -75.4777 114° Southeast 502 578 25,300 -2,571 Descending FlightAware ADS-B
Wed 07:08:28 PM 41.1738 -75.3927 114° Southeast 494 568 24,000 -2,286 Descending FlightAware ADS-B
Wed 07:09:00 PM 41.1438 -75.3036 114° Southeast 490 564 22,900 -1,333 Descending FlightAware ADS-B
Wed 07:09:31 PM 41.1159 -75.2214 114° Southeast 482 555 22,600 -590 Descending FlightAware ADS-B
Wed 07:10:01 PM 41.0885 -75.1407 114° Southeast 481 554 22,300 -500 Descending FlightAware ADS-B
Wed 07:10:31 PM 41.0609 -75.0595 114° Southeast 479 551 22,100 -563 Descending FlightAware ADS-B
Wed 07:11:05 PM 41.0304 -74.9699 114° Southeast 477 549 21,700 -609 Descending FlightAware ADS-B
Wed 07:11:40 PM 41.0015 -74.8753 112° Southeast 478 550 21,400 -490 Descending FlightAware ADS-B
Wed 07:11:54 PM 40.9934 -74.8350 105° East 477 549 21,300 -615 Descending FlightAware ADS-B
Wed 07:12:19 PM 40.9839 -74.7643 100° East 476 548 21,000 -632 Descending FlightAware ADS-B
Wed 07:12:51 PM 40.9739 -74.6719 98° East 472 543 20,700 -484 Descending FlightAware ADS-B
Wed 07:13:21 PM 40.9648 -74.5849 98° East 469 540 20,500 -492 Descending FlightAware ADS-B
Wed 07:13:52 PM 40.9555 -74.4974 98° East 469 540 20,200 -571 Descending FlightAware ADS-B
Wed 07:14:24 PM 40.9459 -74.4096 98° East 466 536 19,900 -581 Descending FlightAware ADS-B
Wed 07:14:54 PM 40.9362 -74.3232 98° East 466 536 19,600 -600 Descending FlightAware ADS-B
Wed 07:15:24 PM 40.9270 -74.2407 98° East 442 509 19,300 -720 Descending FlightAware ADS-B
Wed 07:15:44 PM 40.9210 -74.1889 99° East 430 495 19,000 -621 Descending FlightAware ADS-B
Wed 07:15:53 PM 40.9175 -74.1679 102° East 422 486 19,000  Level FlightAware ADS-B
Wed 07:15:58 PM 40.9145 -74.1543 106° East 430 495 19,000  Level FlightAware ADS-B
Wed 07:16:12 PM 40.9050 -74.1238 112° Southeast 398 458 19,000 -353 Level FlightAware ADS-B
Wed 07:16:15 PM 40.9018 -74.1163 119° Southeast 394 453 18,900 -857 Descending FlightAware ADS-B
Wed 07:16:19 PM 40.8985 -74.1093 122° Southeast 390 449 18,900 -1,000 Level FlightAware ADS-B
Wed 07:16:21 PM 40.8965 -74.1053 123° Southeast 388 447 18,800 -1,091 Descending FlightAware ADS-B
Wed 07:16:30 PM 40.8859 -74.0886 130° Southeast 380 437 18,700 -600 Descending FlightAware ADS-B
Wed 07:16:31 PM 40.8848 -74.0871 134° Southeast 378 435 18,700 -1,500 Level FlightAware ADS-B
Wed 07:16:38 PM 40.8757 -74.0764 138° Southeast 372 428 18,500 -1,385 Descending FlightAware ADS-B
Wed 07:16:44 PM 40.8678 -74.0689 144° Southeast 365 420 18,400 -857 Descending FlightAware ADS-B
Wed 07:16:45 PM 40.8663 -74.0678 151° Southeast 364 419 18,400 -1,000 Level FlightAware ADS-B
Wed 07:16:50 PM 40.8588 -74.0623 151° Southeast 358 412 18,300 -857 Descending FlightAware ADS-B
Wed 07:16:59 PM 40.8454 -74.0547 157° South 349 402 18,200 -1,742 Descending FlightAware ADS-B
Wed 07:17:21 PM 40.8119 -74.0389 160° South 341 392 17,400 -2,129 Descending FlightAware ADS-B
Wed 07:17:30 PM 40.7992 -74.0331 161° South 341 392 17,100 -2,182 Descending FlightAware ADS-B
Wed 07:17:54 PM 40.7637 -74.0169 161° South 337 388 16,200 -2,217 Descending FlightAware ADS-B
Wed 07:18:16 PM 40.7307 -74.0023 161° South 337 388 15,400 -2,063 Descending FlightAware ADS-B
Wed 07:18:26 PM 40.7171 -73.9964 162° South 331 381 15,100 -1,950 Descending FlightAware ADS-B
Wed 07:18:56 PM 40.6734 -73.9774 162° South 321 369 14,100 -1,967 Descending FlightAware ADS-B
Wed 07:19:27 PM 40.6307 -73.9592 162° South 322 371 13,100 -1,304 Descending FlightAware ADS-B
Wed 07:20:05 PM 40.5772 -73.9367 162° South 324 373 12,600 -1,250 Descending FlightAware ADS-B
Wed 07:20:39 PM 40.5301 -73.9168 162° South 311 358 11,600 -2,031 Descending FlightAware ADS-B
Wed 07:21:10 PM 40.4881 -73.8995 163° South 303 349 10,400 -2,426 Descending FlightAware ADS-B
Wed 07:21:26 PM 40.4662 -73.8904 162° South 303 349 9,700 -2,710 Descending FlightAware ADS-B
Wed 07:21:41 PM 40.4457 -73.8821 163° South 301 346 9,000 -2,471 Descending FlightAware ADS-B
Wed 07:22:00 PM 40.4205 -73.8722 163° South 297 342 8,300 -2,229 Descending FlightAware ADS-B
Wed 07:22:16 PM 40.4003 -73.8645 164° South 294 338 7,700 -2,323 Descending FlightAware ADS-B
Wed 07:22:31 PM 40.3803 -73.8572 164° South 293 337 7,100 -2,160 Descending FlightAware ADS-B
Wed 07:22:41 PM 40.3673 -73.8510 160° South 288 331 6,800 -1,667 Descending FlightAware ADS-B
Wed 07:22:49 PM 40.3589 -73.8450 151° Southeast 284 327 6,600 -1,250 Descending FlightAware ADS-B
Wed 07:23:05 PM 40.3416 -73.8312 149° Southeast 273 314 6,300 -909 Descending FlightAware ADS-B
Wed 07:23:22 PM 40.3235 -73.8166 148° Southeast 262 302 6,100 -857 Descending FlightAware ADS-B
Wed 07:23:40 PM 40.3046 -73.8013 148° Southeast 259 298 5,800 -882 Descending FlightAware ADS-B
Wed 07:23:56 PM 40.2890 -73.7887 148° Southeast 258 297 5,600 -909 Descending FlightAware ADS-B
Wed 07:24:13 PM 40.2715 -73.7744 148° Southeast 254 292 5,300 -968 Descending FlightAware ADS-B
Wed 07:24:27 PM 40.2585 -73.7614 143° Southeast 251 289 5,100 -1,034 Descending FlightAware ADS-B
Wed 07:24:42 PM 40.2512 -73.7424 117° Southeast 240 276 4,800 -980 Descending FlightAware ADS-B
Wed 07:25:16 PM 40.2620 -73.7010 71° East 222 255 4,300 -1,000 Descending FlightAware ADS-B
Wed 07:25:42 PM 40.2800 -73.6750 48° Northeast 220 253 3,800 -1,000 Descending FlightAware ADS-B
Wed 07:26:04 PM 40.2960 -73.6550 44° Northeast 221 254 3,500 -360 Descending FlightAware ADS-B
Wed 07:26:32 PM 40.3140 -73.6330 43° Northeast 221 254 3,500 -682 Level FlightAware ADS-B
Wed 07:26:48 PM 40.2680 -73.6900 223° Southwest 221 254 3,000 -769 Descending FlightAware ADS-B
Wed 07:27:11 PM 40.3460 -73.5950 43° Northeast 220 253 3,000  Level FlightAware ADS-B
Wed 07:27:32 PM 40.3620 -73.5750 44° Northeast 211 243 3,000  Level FlightAware ADS-B
Wed 07:27:52 PM 40.3750 -73.5590 43° Northeast 191 220 3,000  Level FlightAware ADS-B
Wed 07:28:10 PM 40.3870 -73.5450 42° Northeast 190 219 3,000  Level FlightAware ADS-B
Wed 07:28:28 PM 40.3980 -73.5310 44° Northeast 188 216 3,000  Level FlightAware ADS-B
Wed 07:28:50 PM 40.4130 -73.5130 42° Northeast 189 217 3,000  Level FlightAware ADS-B
Wed 07:29:08 PM 40.4240 -73.4990 44° Northeast 186 214 3,000  Level FlightAware ADS-B
Wed 07:29:30 PM 40.4370 -73.4840 41° Northeast 183 211 3,000  Level FlightAware ADS-B
Wed 07:29:38 PM 40.4450 -73.4800 21° North 177 204 3,000  Level FlightAware ADS-B
Wed 07:29:54 PM 40.4570 -73.4760 14° North 177 204 3,000  Level FlightAware ADS-B
Wed 07:30:32 PM 40.4860 -73.4810 353° North 168 193 3,000  Level FlightAware ADS-B
Wed 07:30:54 PM 40.5000 -73.4940 325° Northwest 171 197 3,000  Level FlightAware ADS-B
Wed 07:31:15 PM 40.5140 -73.5050 329° Northwest 168 193 3,000  Level FlightAware ADS-B
Wed 07:31:31 PM 40.5240 -73.5150 323° Northwest 170 196 3,000  Level FlightAware ADS-B
Wed 07:31:52 PM 40.5370 -73.5270 325° Northwest 170 196 3,000  Level FlightAware ADS-B
Wed 07:32:12 PM 40.5460 -73.5450 303° West 156 180 3,000  Level FlightAware ADS-B
Wed 07:32:32 PM 40.5530 -73.5600 302° West 151 174 3,000  Level FlightAware ADS-B
Wed 07:32:52 PM 40.5600 -73.5760 300° West 150 173 3,000  Level FlightAware ADS-B
Wed 07:33:08 PM 40.5660 -73.5890 301° West 151 174 3,000 -474 Level FlightAware ADS-B
Wed 07:33:30 PM 40.5740 -73.6070 300° West 151 174 2,700 -732 Descending FlightAware ADS-B
Wed 07:33:49 PM 40.5810 -73.6210 303° West 151 174 2,500 -750 Descending FlightAware ADS-B
Wed 07:34:10 PM 40.5880 -73.6380 298° West 151 174 2,200 -800 Descending FlightAware ADS-B
Wed 07:34:34 PM 40.5970 -73.6570 302° West 152 175 1,900 -698 Descending FlightAware ADS-B
Wed 07:34:53 PM 40.6040 -73.6710 303° West 147 169 1,700 -900 Descending FlightAware ADS-B
Wed 07:35:14 PM 40.6110 -73.6860 302° West 131 151 1,300 -878 Descending FlightAware ADS-B
Wed 07:35:34 PM 40.6170 -73.6990 301° West 122 140 1,100 -545 Descending FlightAware ADS-B
Wed 07:35:58 PM 40.6230 -73.7140 298° West 116 133 900 -545 Descending FlightAware ADS-B
Wed 07:36:18 PM 40.6290 -73.7270 301° West 116 133 700 -615 Descending FlightAware ADS-B
Wed 07:36:37 PM 40.6340 -73.7390 299° West 119 137 500 -769 Descending FlightAware ADS-B
Wed 07:36:57 PM 40.6400 -73.7510 303° West 122 140 200 -900 Descending FlightAware ADS-B
Wed 07:37:26 PM 40.6480 -73.7690 300° West 105 121 -414 Descending FlightAware ADS-B
Wed 07:37:39 PM 40.6500 -73.7740 298° West 74 85  Level FlightAware ADS-B

Login

Don't have an account? Register now (free) for customized features, flight alerts, and more!